Time;durP1;ratioP1;P1;durP2;ratioP2;P2;SDS_P1;SDS_P2;PMS_P1;PMS_P2;Temp;Humidity;BMP_temperature;BMP_pressure;BME280_temperature;BME280_humidity;BME280_pressure;Samples;Min_cycle;Max_cycle;Signal;HPM_P1;HPM_P2
2021/06/26 00:00:57;;;;;;;13.73;9.75;;;21.10;62.80;;;;;;5047921;28;20404;-67
2021/06/26 00:03:27;;;;;;;14.50;10.52;;;21.10;62.80;;;;;;5033903;28;20113;-68
2021/06/26 00:05:54;;;;;;;14.53;10.03;;;21.10;62.80;;;;;;5033819;28;20040;-65
2021/06/26 00:08:20;;;;;;;14.90;9.75;;;21.10;62.80;;;;;;5034708;28;20689;-67
2021/06/26 00:10:47;;;;;;;16.63;9.75;;;21.10;62.90;;;;;;5035098;28;20064;-67
2021/06/26 00:13:13;;;;;;;13.57;9.48;;;21.00;62.80;;;;;;5051987;28;20039;-67
2021/06/26 00:15:39;;;;;;;15.35;10.32;;;21.00;62.80;;;;;;5053685;28;20159;-66
2021/06/26 00:18:05;;;;;;;14.35;9.77;;;21.00;62.80;;;;;;5035583;28;20029;-67
2021/06/26 00:20:31;;;;;;;15.55;9.85;;;21.00;63.00;;;;;;5035712;28;20025;-67
2021/06/26 00:22:57;;;;;;;15.35;10.27;;;21.00;63.10;;;;;;5035476;28;20458;-66
2021/06/26 00:25:23;;;;;;;14.48;10.07;;;21.00;63.10;;;;;;5052969;28;20071;-67
2021/06/26 00:27:53;;;;;;;13.25;10.07;;;21.00;63.30;;;;;;5053268;28;20027;-67
2021/06/26 00:30:19;;;;;;;14.75;10.57;;;21.00;63.50;;;;;;5053268;28;20021;-67
2021/06/26 00:32:45;;;;;;;17.17;11.70;;;21.00;63.60;;;;;;5053445;28;20044;-66
2021/06/26 00:35:12;;;;;;;13.85;10.05;;;20.90;63.70;;;;;;5053493;28;20024;-66
2021/06/26 00:37:38;;;;;;;14.10;10.07;;;21.00;63.90;;;;;;5053094;28;20064;-67
2021/06/26 00:40:05;;;;;;;14.98;10.88;;;20.90;63.80;;;;;;5053168;28;20033;-66
2021/06/26 00:42:32;;;;;;;15.98;11.20;;;20.90;63.70;;;;;;5035239;28;20039;-67
2021/06/26 00:44:57;;;;;;;14.40;11.00;;;20.90;63.90;;;;;;5053044;28;20025;-67
2021/06/26 00:47:23;;;;;;;14.43;10.32;;;20.90;64.10;;;;;;5052853;28;20018;-66
2021/06/26 00:49:49;;;;;;;12.38;9.60;;;20.90;64.50;;;;;;5053089;28;20070;-67
2021/06/26 00:52:14;;;;;;;14.32;10.18;;;20.90;65.00;;;;;;5035211;28;20025;-67
2021/06/26 00:54:40;;;;;;;14.38;9.90;;;20.90;65.30;;;;;;5035260;28;20040;-67
2021/06/26 00:57:06;;;;;;;16.13;10.60;;;20.90;65.40;;;;;;5035103;28;20029;-66
2021/06/26 00:59:32;;;;;;;16.02;10.38;;;20.90;65.10;;;;;;5052816;28;20044;-65
2021/06/26 01:01:58;;;;;;;15.65;10.35;;;20.90;65.00;;;;;;5038206;28;20029;-67
2021/06/26 01:04:24;;;;;;;15.43;11.32;;;20.90;65.10;;;;;;5015215;28;20022;-67
2021/06/26 01:06:49;;;;;;;16.05;11.20;;;20.90;65.20;;;;;;5032740;28;20036;-66
2021/06/26 01:09:15;;;;;;;16.05;11.38;;;20.90;65.20;;;;;;5032824;28;20022;-67
2021/06/26 01:11:40;;;;;;;16.70;12.20;;;20.90;65.30;;;;;;5032713;28;20032;-67
2021/06/26 01:14:06;;;;;;;16.98;11.88;;;20.90;65.20;;;;;;5032678;28;20032;-67
2021/06/26 01:16:32;;;;;;;16.45;12.18;;;20.90;65.20;;;;;;5032646;28;20025;-67
2021/06/26 01:18:57;;;;;;;16.10;11.95;;;20.90;65.20;;;;;;5014651;28;20124;-67
2021/06/26 01:21:23;;;;;;;16.50;11.48;;;20.80;65.30;;;;;;5032427;28;20104;-67
2021/06/26 01:23:53;;;;;;;14.10;10.15;;;20.90;65.90;;;;;;5032663;28;20096;-67
2021/06/26 01:26:20;;;;;;;15.98;10.32;;;20.80;66.10;;;;;;5032568;28;20018;-67
2021/06/26 01:28:46;;;;;;;15.98;10.48;;;20.90;66.40;;;;;;5032050;28;20409;-66
2021/06/26 01:31:11;;;;;;;13.07;9.98;;;20.90;66.50;;;;;;5032374;28;20022;-67
2021/06/26 01:33:37;;;;;;;14.23;10.90;;;20.90;66.60;;;;;;5032305;28;20030;-67
2021/06/26 01:36:03;;;;;;;14.77;10.30;;;20.90;66.50;;;;;;5013813;28;20108;-67
2021/06/26 01:38:28;;;;;;;13.57;10.35;;;20.90;66.60;;;;;;5014256;28;20026;-67
2021/06/26 01:40:54;;;;;;;15.18;11.32;;;20.80;66.50;;;;;;5014370;28;20088;-68
2021/06/26 01:43:19;;;;;;;16.05;11.25;;;20.80;66.50;;;;;;5031700;28;20035;-66
2021/06/26 01:45:45;;;;;;;14.38;10.55;;;20.80;66.50;;;;;;5051245;28;20028;-67
2021/06/26 01:48:11;;;;;;;14.23;10.32;;;20.80;66.60;;;;;;5051720;28;20025;-67
2021/06/26 01:50:36;;;;;;;15.25;10.60;;;20.80;66.80;;;;;;5051832;28;20025;-67
2021/06/26 01:53:03;;;;;;;14.63;10.27;;;20.80;67.10;;;;;;5051972;28;20112;-67
2021/06/26 01:55:29;;;;;;;15.85;10.98;;;20.80;67.40;;;;;;5034082;28;20029;-66
2021/06/26 01:57:55;;;;;;;14.32;10.75;;;20.80;67.60;;;;;;5033648;28;20024;-67
2021/06/26 02:00:23;;;;;;;12.65;9.57;;;20.80;67.80;;;;;;5033886;28;20032;-67
2021/06/26 02:02:49;;;;;;;16.17;10.07;;;20.90;68.30;;;;;;5051614;28;20029;-66
2021/06/26 02:05:17;;;;;;;14.52;10.38;;;20.80;68.10;;;;;;5051888;28;20102;-67
2021/06/26 02:07:44;;;;;;;15.30;10.60;;;20.80;68.20;;;;;;5033604;28;20025;-67
2021/06/26 02:10:11;;;;;;;13.52;9.95;;;20.80;67.90;;;;;;5051618;28;20053;-66
2021/06/26 02:12:36;;;;;;;15.52;11.05;;;20.80;67.50;;;;;;5051646;28;20380;-67
2021/06/26 02:15:02;;;;;;;13.73;10.52;;;20.80;67.70;;;;;;5051714;28;20031;-67
2021/06/26 02:17:29;;;;;;;16.17;10.85;;;20.80;67.60;;;;;;5051328;28;20051;-66
2021/06/26 02:19:54;;;;;;;16.00;11.63;;;20.80;67.80;;;;;;5051540;28;20028;-67
2021/06/26 02:22:20;;;;;;;15.43;10.80;;;20.80;67.50;;;;;;5033668;28;20395;-67
2021/06/26 02:24:45;;;;;;;15.40;10.80;;;20.80;67.70;;;;;;5051506;28;20035;-67
2021/06/26 02:27:11;;;;;;;16.27;10.80;;;20.80;67.70;;;;;;5051235;28;20123;-67
2021/06/26 02:29:36;;;;;;;17.52;11.55;;;20.70;67.70;;;;;;5051395;28;20036;-67
2021/06/26 02:32:03;;;;;;;16.73;11.80;;;20.80;67.80;;;;;;5051441;28;20029;-67
2021/06/26 02:34:29;;;;;;;15.95;11.20;;;20.60;67.50;;;;;;5051434;28;20033;-67
2021/06/26 02:36:55;;;;;;;15.75;11.50;;;20.80;67.80;;;;;;5033323;28;20382;-65
2021/06/26 02:39:20;;;;;;;16.15;11.38;;;20.80;67.70;;;;;;5018336;28;20034;-66
2021/06/26 02:41:46;;;;;;;15.70;11.15;;;20.70;68.00;;;;;;5013562;28;20053;-66
2021/06/26 02:44:12;;;;;;;16.85;11.30;;;20.70;68.00;;;;;;5042796;28;20029;-68
2021/06/26 02:46:37;;;;;;;13.80;10.38;;;20.70;67.90;;;;;;5033835;28;20051;-67
2021/06/26 02:49:03;;;;;;;13.88;10.13;;;20.70;68.20;;;;;;5054787;28;20491;-67
2021/06/26 02:51:29;;;;;;;14.85;9.65;;;20.70;68.40;;;;;;5055339;28;20036;-67
2021/06/26 02:53:54;;;;;;;16.40;11.27;;;20.70;68.70;;;;;;5050874;28;20216;-67
2021/06/26 02:56:20;;;;;;;16.67;10.43;;;20.70;68.90;;;;;;5043838;28;20096;-67
2021/06/26 02:58:45;;;;;;;14.50;10.27;;;20.70;68.70;;;;;;5053372;28;20024;-67
2021/06/26 03:01:11;;;;;;;15.75;10.75;;;20.70;68.60;;;;;;5036570;28;20067;-67
2021/06/26 03:03:36;;;;;;;15.05;10.60;;;20.70;68.40;;;;;;5053390;28;20047;-67
2021/06/26 03:06:02;;;;;;;16.08;10.88;;;20.70;68.40;;;;;;5053616;28;20032;-66
2021/06/26 03:08:27;;;;;;;16.83;11.55;;;20.70;68.60;;;;;;5054363;28;20390;-66
2021/06/26 03:10:53;;;;;;;14.70;10.70;;;20.70;68.70;;;;;;5054394;28;20099;-67
2021/06/26 03:13:18;;;;;;;13.85;10.48;;;20.70;68.90;;;;;;5054391;28;20376;-68
2021/06/26 03:15:45;;;;;;;14.57;10.93;;;20.70;68.70;;;;;;5037038;28;20033;-67
2021/06/26 03:18:11;;;;;;;16.92;11.00;;;20.70;68.80;;;;;;5054190;28;20029;-67
2021/06/26 03:20:37;;;;;;;16.52;11.90;;;20.70;68.70;;;;;;5053891;28;20036;-68
2021/06/26 03:23:02;;;;;;;17.75;12.23;;;20.70;68.60;;;;;;5030658;28;20380;-67
2021/06/26 03:25:28;;;;;;;19.08;12.23;;;20.70;68.30;;;;;;5034468;28;20091;-67
2021/06/26 03:27:53;;;;;;;18.98;12.48;;;20.70;68.20;;;;;;5048654;28;20096;-67
2021/06/26 03:30:19;;;;;;;17.83;12.30;;;20.70;68.20;;;;;;5036691;28;20029;-67
2021/06/26 03:32:45;;;;;;;16.17;11.27;;;20.70;68.70;;;;;;5054596;28;20053;-66
2021/06/26 03:35:12;;;;;;;16.65;11.98;;;20.60;68.70;;;;;;5054444;28;20053;-67
2021/06/26 03:37:37;;;;;;;16.48;11.85;;;20.60;69.00;;;;;;5036303;28;20029;-68
2021/06/26 03:40:04;;;;;;;17.10;12.48;;;20.60;69.20;;;;;;5036423;28;20047;-67
2021/06/26 03:42:29;;;;;;;15.52;11.20;;;20.60;69.40;;;;;;5054252;28;20114;-67
2021/06/26 03:44:55;;;;;;;15.45;11.68;;;20.60;69.50;;;;;;5054337;28;20067;-67
2021/06/26 03:47:20;;;;;;;16.30;11.10;;;20.60;69.40;;;;;;5036119;28;20021;-67
2021/06/26 03:49:46;;;;;;;17.35;12.15;;;20.60;69.60;;;;;;5053691;28;20112;-66
2021/06/26 03:52:11;;;;;;;14.18;10.40;;;20.60;69.70;;;;;;5036887;28;20483;-67
2021/06/26 03:54:37;;;;;;;16.23;10.93;;;20.70;70.00;;;;;;5036254;28;20029;-65
2021/06/26 03:57:03;;;;;;;16.02;10.68;;;20.60;70.00;;;;;;5053958;28;20128;-66
2021/06/26 03:59:29;;;;;;;15.63;10.75;;;20.70;70.00;;;;;;5038709;28;20557;-66
2021/06/26 04:01:55;;;;;;;14.38;10.57;;;20.70;70.30;;;;;;5049084;28;20123;-66
2021/06/26 04:04:20;;;;;;;17.10;10.98;;;20.60;70.50;;;;;;5044281;28;20017;-66
2021/06/26 04:06:47;;;;;;;19.50;12.30;;;20.60;70.10;;;;;;5022331;28;21472;-66
2021/06/26 04:09:13;;;;;;;17.02;11.20;;;20.60;70.20;;;;;;5047511;28;20033;-66
2021/06/26 04:11:39;;;;;;;17.88;11.07;;;20.60;70.20;;;;;;5029080;28;20017;-65
2021/06/26 04:14:04;;;;;;;14.00;10.18;;;20.70;70.30;;;;;;5047585;28;20029;-67
2021/06/26 04:16:30;;;;;;;16.40;10.32;;;20.70;70.40;;;;;;5047243;28;20103;-65
2021/06/26 04:18:55;;;;;;;13.65;9.90;;;20.70;70.10;;;;;;5047142;28;20024;-66
2021/06/26 04:21:21;;;;;;;14.13;10.18;;;20.70;70.00;;;;;;5047079;28;20483;-64
2021/06/26 04:23:46;;;;;;;17.75;10.52;;;20.70;70.30;;;;;;5039450;28;20032;-68
2021/06/26 04:26:12;;;;;;;14.35;9.43;;;20.70;70.20;;;;;;5027155;28;20032;-67
2021/06/26 04:28:37;;;;;;;14.65;10.48;;;20.70;70.50;;;;;;5027186;28;20025;-67
2021/06/26 04:31:03;;;;;;;14.52;9.82;;;20.70;70.30;;;;;;5039658;28;20120;-67
2021/06/26 04:33:29;;;;;;;15.93;10.55;;;20.70;70.20;;;;;;5041269;28;20474;-66
2021/06/26 04:35:54;;;;;;;14.00;9.88;;;20.70;70.50;;;;;;5027171;28;20026;-65
2021/06/26 04:38:23;;;;;;;16.05;10.32;;;20.70;70.50;;;;;;5038968;28;20490;-66
2021/06/26 04:40:52;;;;;;;16.13;9.95;;;20.70;70.50;;;;;;5046320;28;20037;-67
2021/06/26 04:43:19;;;;;;;19.73;10.95;;;20.70;70.70;;;;;;5028434;28;20032;-67
2021/06/26 04:45:46;;;;;;;13.70;9.75;;;20.70;71.50;;;;;;5046564;28;20040;-70
2021/06/26 04:48:12;;;;;;;19.20;10.73;;;20.70;70.80;;;;;;5028887;28;20029;-69
2021/06/26 04:50:38;;;;;;;18.02;10.57;;;20.70;71.70;;;;;;5047085;28;20082;-74
2021/06/26 04:53:04;;;;;;;22.33;11.10;;;20.70;71.70;;;;;;5047159;28;20029;-69
2021/06/26 04:55:29;;;;;;;20.95;10.85;;;20.70;71.70;;;;;;5051542;28;20075;-66
2021/06/26 04:57:55;;;;;;;26.65;11.10;;;20.70;71.90;;;;;;5052379;28;20021;-67
2021/06/26 05:00:21;;;;;;;17.95;10.38;;;20.80;72.10;;;;;;5052904;28;20056;-67
2021/06/26 05:02:46;;;;;;;28.23;11.10;;;20.80;71.70;;;;;;5052257;28;20540;-68
2021/06/26 05:05:12;;;;;;;19.45;10.35;;;20.80;71.60;;;;;;5052920;28;20096;-67
2021/06/26 05:07:38;;;;;;;23.05;10.32;;;20.80;71.40;;;;;;5048743;28;20128;-67
2021/06/26 05:10:04;;;;;;;17.58;9.93;;;20.90;72.10;;;;;;5034325;28;20049;-67
2021/06/26 05:12:29;;;;;;;18.17;9.23;;;20.80;71.60;;;;;;5052421;28;20032;-67
2021/06/26 05:14:55;;;;;;;18.95;9.82;;;20.90;70.80;;;;;;5052723;28;20028;-67
2021/06/26 05:17:20;;;;;;;14.18;9.27;;;20.90;70.80;;;;;;5034396;28;20544;-67
2021/06/26 05:19:46;;;;;;;14.50;10.65;;;20.90;70.50;;;;;;5051669;28;20442;-67
2021/06/26 05:22:13;;;;;;;17.92;11.05;;;20.90;70.60;;;;;;5051512;28;20025;-67
2021/06/26 05:24:39;;;;;;;13.32;8.27;;;21.00;70.60;;;;;;5033391;28;20079;-66
2021/06/26 05:27:05;;;;;;;14.52;8.80;;;21.00;70.10;;;;;;5032978;28;20044;-68
2021/06/26 05:29:31;;;;;;;15.00;8.75;;;21.00;69.60;;;;;;5051128;28;20048;-67
2021/06/26 05:31:57;;;;;;;16.40;8.77;;;21.00;69.50;;;;;;5032947;28;20025;-67
2021/06/26 05:34:22;;;;;;;17.60;10.63;;;21.10;69.80;;;;;;5033099;28;20021;-68
2021/06/26 05:36:48;;;;;;;16.83;10.60;;;21.00;70.00;;;;;;5050850;28;20035;-65
2021/06/26 05:39:13;;;;;;;18.55;12.60;;;21.00;69.80;;;;;;5050935;28;20029;-67
2021/06/26 05:41:39;;;;;;;17.88;12.63;;;21.00;70.20;;;;;;5050570;28;20029;-67
2021/06/26 05:44:05;;;;;;;16.20;9.60;;;21.00;70.00;;;;;;5050828;28;20025;-67
2021/06/26 05:46:30;;;;;;;16.13;12.10;;;21.10;69.70;;;;;;5050716;28;20096;-67
2021/06/26 05:48:56;;;;;;;18.75;11.10;;;21.10;70.00;;;;;;5032761;28;20079;-67
2021/06/26 05:51:21;;;;;;;14.65;9.90;;;21.10;69.90;;;;;;5032882;28;20013;-67
2021/06/26 05:53:47;;;;;;;17.05;9.80;;;21.10;69.40;;;;;;5032904;28;20048;-67
2021/06/26 05:56:13;;;;;;;15.38;9.55;;;21.10;69.50;;;;;;5050730;28;20044;-68
2021/06/26 05:58:39;;;;;;;15.50;10.60;;;21.10;69.30;;;;;;5032525;28;20063;-67
2021/06/26 06:01:06;;;;;;;15.95;10.82;;;21.10;69.50;;;;;;5050254;28;20021;-67
2021/06/26 06:03:32;;;;;;;16.02;10.93;;;21.20;69.30;;;;;;5032672;28;20036;-68
2021/06/26 06:05:58;;;;;;;14.40;9.77;;;21.20;69.40;;;;;;5050472;28;20072;-67
2021/06/26 06:08:23;;;;;;;15.38;9.77;;;21.20;69.40;;;;;;5032367;28;20041;-66
2021/06/26 06:10:49;;;;;;;15.57;11.18;;;21.20;69.10;;;;;;5050368;28;20017;-67
2021/06/26 06:13:16;;;;;;;15.75;10.95;;;21.20;69.60;;;;;;5050406;28;20398;-67
2021/06/26 06:15:43;;;;;;;15.40;11.32;;;21.20;69.00;;;;;;5032390;28;20021;-67
2021/06/26 06:18:09;;;;;;;26.20;10.77;;;21.20;69.20;;;;;;5032209;28;20819;-67
2021/06/26 06:20:35;;;;;;;14.88;10.45;;;21.20;69.20;;;;;;5050410;28;20037;-68
2021/06/26 06:23:01;;;;;;;16.35;11.18;;;21.20;68.80;;;;;;5049707;28;20569;-67
2021/06/26 06:25:27;;;;;;;16.67;11.10;;;21.30;68.90;;;;;;5050282;28;20045;-67
2021/06/26 06:27:52;;;;;;;15.13;10.13;;;21.30;68.90;;;;;;5049878;28;20021;-68
2021/06/26 06:30:18;;;;;;;14.25;9.85;;;21.30;68.90;;;;;;5050164;28;20017;-67
2021/06/26 06:32:43;;;;;;;14.80;10.38;;;21.30;68.20;;;;;;5050266;28;20029;-67
2021/06/26 06:35:09;;;;;;;15.63;10.57;;;21.30;68.40;;;;;;5050310;28;20534;-67
2021/06/26 06:37:38;;;;;;;14.90;10.85;;;21.30;68.50;;;;;;5049948;28;20025;-68
2021/06/26 06:40:08;;;;;;;14.43;10.68;;;21.20;68.00;;;;;;5031914;28;20033;-67
2021/06/26 06:42:34;;;;;;;14.13;9.65;;;21.30;68.50;;;;;;5050240;28;20025;-67
2021/06/26 06:45:00;;;;;;;15.50;10.77;;;21.30;68.20;;;;;;5050189;28;20379;-67
2021/06/26 06:47:26;;;;;;;17.70;10.13;;;21.30;68.00;;;;;;5047248;28;20021;-67
2021/06/26 06:49:51;;;;;;;16.55;9.93;;;21.30;68.20;;;;;;5050145;28;20016;-67
2021/06/26 06:52:17;;;;;;;15.23;10.15;;;21.30;68.20;;;;;;5032239;28;20116;-67
2021/06/26 06:54:42;;;;;;;16.65;9.90;;;21.30;68.00;;;;;;5050002;28;20075;-67
2021/06/26 06:57:08;;;;;;;16.20;9.77;;;21.30;68.00;;;;;;5032007;28;20116;-67
2021/06/26 06:59:34;;;;;;;14.50;10.13;;;21.40;68.10;;;;;;5032265;28;20039;-66
2021/06/26 07:01:59;;;;;;;12.07;9.00;;;21.40;68.00;;;;;;5031568;28;20470;-67
2021/06/26 07:04:25;;;;;;;12.82;9.25;;;21.40;67.50;;;;;;5032173;28;20037;-67
2021/06/26 07:06:51;;;;;;;12.85;9.18;;;21.40;67.30;;;;;;5031849;28;20414;-67
2021/06/26 07:09:17;;;;;;;14.07;8.85;;;21.50;67.30;;;;;;5049799;28;20086;-70
2021/06/26 07:11:43;;;;;;;14.63;9.85;;;21.50;67.30;;;;;;5032002;28;20017;-66
2021/06/26 07:14:08;;;;;;;13.73;9.30;;;21.50;67.10;;;;;;5049822;28;20025;-68
2021/06/26 07:16:34;;;;;;;15.40;9.52;;;21.50;67.10;;;;;;5049911;28;20025;-67
2021/06/26 07:18:59;;;;;;;16.83;9.70;;;21.50;67.80;;;;;;5049650;28;20021;-67
2021/06/26 07:21:25;;;;;;;15.25;9.02;;;21.60;68.00;;;;;;5031755;28;20121;-67
2021/06/26 07:23:50;;;;;;;16.00;9.80;;;21.70;67.60;;;;;;5049577;28;20556;-66
2021/06/26 07:26:16;;;;;;;14.52;9.45;;;21.70;67.20;;;;;;5049781;28;20021;-68
2021/06/26 07:28:41;;;;;;;16.55;9.80;;;21.80;67.90;;;;;;5049426;28;20025;-68
2021/06/26 07:31:07;;;;;;;17.80;9.75;;;21.90;67.10;;;;;;5049716;28;20112;-67
2021/06/26 07:33:33;;;;;;;15.52;9.93;;;21.90;67.20;;;;;;5050416;28;20223;-67
2021/06/26 07:35:58;;;;;;;15.50;10.35;;;21.80;67.40;;;;;;5035271;28;20053;-66
2021/06/26 07:38:24;;;;;;;14.30;9.60;;;21.80;67.60;;;;;;5035384;28;20013;-67
2021/06/26 07:40:50;;;;;;;19.10;10.63;;;21.80;67.30;;;;;;5053214;28;20039;-67
2021/06/26 07:43:16;;;;;;;20.33;10.20;;;21.80;67.50;;;;;;5053639;28;20025;-67
2021/06/26 07:45:41;;;;;;;17.73;9.80;;;21.80;67.70;;;;;;5054478;28;20028;-68
2021/06/26 07:48:07;;;;;;;15.80;9.13;;;21.80;67.40;;;;;;5054090;28;20032;-67
2021/06/26 07:50:33;;;;;;;17.00;10.50;;;21.90;67.20;;;;;;5053827;28;20036;-68
2021/06/26 07:52:58;;;;;;;18.30;10.20;;;21.90;67.20;;;;;;5036364;28;20029;-67
2021/06/26 07:55:24;;;;;;;15.55;9.45;;;21.90;67.20;;;;;;5054259;28;20060;-68
2021/06/26 07:57:49;;;;;;;14.75;9.68;;;21.90;67.10;;;;;;5036040;28;20029;-67
2021/06/26 08:00:15;;;;;;;18.85;10.38;;;21.90;66.90;;;;;;5054066;28;20029;-68
2021/06/26 08:02:41;;;;;;;13.85;9.35;;;22.00;67.00;;;;;;5053707;28;20025;-67
2021/06/26 08:05:07;;;;;;;16.50;9.77;;;22.00;66.90;;;;;;5054063;28;20032;-67
2021/06/26 08:07:32;;;;;;;17.85;9.82;;;22.00;67.00;;;;;;5053672;28;20071;-69
2021/06/26 08:09:58;;;;;;;17.73;9.52;;;22.10;66.40;;;;;;5036015;28;20394;-66
2021/06/26 08:12:23;;;;;;;18.35;9.90;;;22.10;66.80;;;;;;5036087;28;20507;-67
2021/06/26 08:14:49;;;;;;;19.48;9.85;;;22.10;66.90;;;;;;5053924;28;20029;-67
2021/06/26 08:17:15;;;;;;;28.25;10.15;;;22.10;67.00;;;;;;5053434;28;20483;-67
2021/06/26 08:19:41;;;;;;;22.65;9.48;;;22.10;66.50;;;;;;5053529;28;20033;-68
2021/06/26 08:22:07;;;;;;;23.35;9.73;;;22.20;66.90;;;;;;5035611;28;20099;-68
2021/06/26 08:24:34;;;;;;;13.52;9.60;;;22.20;67.10;;;;;;5052272;28;20524;-67
2021/06/26 08:27:00;;;;;;;13.38;8.93;;;22.10;66.80;;;;;;5033741;28;20210;-68
2021/06/26 08:29:26;;;;;;;17.25;9.40;;;22.20;66.20;;;;;;5035774;28;20032;-67
2021/06/26 08:31:52;;;;;;;14.80;10.18;;;22.10;66.70;;;;;;5035497;28;20025;-68
2021/06/26 08:34:17;;;;;;;16.38;9.15;;;22.20;66.60;;;;;;5053531;28;20036;-67
2021/06/26 08:36:43;;;;;;;14.02;8.95;;;22.20;66.50;;;;;;5053392;28;20556;-66
2021/06/26 08:39:08;;;;;;;13.32;8.75;;;22.20;66.30;;;;;;5053203;28;20025;-66
2021/06/26 08:41:44;;;;;;;14.48;9.15;;;22.20;66.00;;;;;;5035346;28;20036;-68
2021/06/26 08:44:11;;;;;;;11.93;8.45;;;22.30;66.00;;;;;;5052935;28;20017;-67
2021/06/26 08:46:43;;;;;;;13.45;8.95;;;22.30;66.10;;;;;;5035277;28;20029;-66
2021/06/26 08:49:09;;;;;;;12.60;8.20;;;22.30;66.60;;;;;;5052984;28;20039;-66
2021/06/26 08:51:35;;;;;;;12.40;8.10;;;22.30;66.00;;;;;;5053027;28;20025;-67
2021/06/26 08:54:01;;;;;;;15.18;8.30;;;22.40;65.70;;;;;;5053095;28;20479;-67
2021/06/26 08:56:27;;;;;;;16.92;8.52;;;22.50;65.10;;;;;;5052961;28;20025;-67
2021/06/26 08:58:52;;;;;;;14.48;8.55;;;22.60;64.60;;;;;;5034801;28;20437;-67
2021/06/26 09:01:18;;;;;;;12.38;8.23;;;22.70;64.60;;;;;;5052353;28;20044;-67
2021/06/26 09:03:43;;;;;;;14.20;8.27;;;22.70;64.10;;;;;;5035009;28;20073;-67
2021/06/26 09:06:09;;;;;;;13.52;8.38;;;22.80;63.90;;;;;;5052867;28;20053;-67
2021/06/26 09:08:35;;;;;;;12.00;8.27;;;22.80;63.60;;;;;;5052559;28;20070;-67
2021/06/26 09:11:00;;;;;;;13.48;8.07;;;22.80;63.50;;;;;;5034804;28;20017;-67
2021/06/26 09:13:32;;;;;;;13.73;8.70;;;22.90;63.70;;;;;;5034983;28;20061;-67
2021/06/26 09:16:11;;;;;;;13.73;8.85;;;22.90;63.50;;;;;;5052792;28;20021;-67
2021/06/26 09:18:44;;;;;;;12.68;8.40;;;23.00;63.20;;;;;;5052434;28;20036;-67
2021/06/26 09:21:33;;;;;;;13.52;8.68;;;23.00;62.80;;;;;;5034587;28;20490;-67
2021/06/26 09:24:09;;;;;;;11.20;7.47;;;23.00;62.90;;;;;;5034810;28;20025;-67
2021/06/26 09:26:42;;;;;;;11.18;7.47;;;23.00;62.60;;;;;;5052502;28;20032;-67
2021/06/26 09:29:13;;;;;;;14.65;8.18;;;23.00;62.60;;;;;;5034412;28;20064;-67
2021/06/26 09:32:00;;;;;;;11.52;7.70;;;23.10;62.50;;;;;;5034762;28;20061;-68
2021/06/26 09:34:44;;;;;;;11.65;8.15;;;23.20;62.50;;;;;;5034513;28;20032;-67
2021/06/26 09:37:16;;;;;;;11.05;7.60;;;23.20;62.00;;;;;;5052002;28;20052;-67
2021/06/26 09:39:44;;;;;;;12.27;7.70;;;23.30;61.80;;;;;;5052098;28;20065;-67
2021/06/26 09:42:27;;;;;;;11.18;7.80;;;23.30;61.70;;;;;;5052088;28;20064;-68
2021/06/26 09:44:57;;;;;;;10.90;7.97;;;23.30;61.70;;;;;;5052259;28;20057;-67
2021/06/26 09:47:40;;;;;;;10.95;7.13;;;23.20;62.20;;;;;;5033986;28;20028;-67
2021/06/26 09:50:21;;;;;;;11.52;7.80;;;23.10;62.40;;;;;;5052448;28;20107;-67
2021/06/26 09:52:52;;;;;;;10.40;7.78;;;23.10;62.50;;;;;;5034325;28;20393;-67
2021/06/26 09:55:49;;;;;;;10.30;7.30;;;23.10;62.30;;;;;;5051910;28;20064;-67
2021/06/26 09:58:17;;;;;;;10.90;7.00;;;23.20;62.30;;;;;;5031904;28;20037;-67
2021/06/26 10:00:44;;;;;;;12.43;7.72;;;23.20;62.20;;;;;;5051345;28;20031;-67
2021/06/26 10:03:10;;;;;;;10.05;7.32;;;23.20;62.30;;;;;;5051843;28;20025;-67
2021/06/26 10:05:37;;;;;;;14.50;8.50;;;23.30;62.00;;;;;;5051830;28;20363;-67
2021/06/26 10:08:05;;;;;;;11.07;7.40;;;23.40;61.60;;;;;;5051584;28;20096;-67
2021/06/26 10:10:30;;;;;;;10.63;7.93;;;23.40;61.30;;;;;;5051646;28;20414;-67
2021/06/26 10:12:56;;;;;;;11.13;7.65;;;23.50;61.20;;;;;;5033787;28;20021;-67
2021/06/26 10:15:25;;;;;;;11.43;7.65;;;23.50;61.10;;;;;;5051741;28;20029;-66
2021/06/26 10:17:51;;;;;;;10.48;6.97;;;23.50;61.00;;;;;;5033555;28;20025;-67
2021/06/26 10:20:19;;;;;;;9.68;7.45;;;23.50;61.00;;;;;;5051571;28;20032;-67
2021/06/26 10:22:59;;;;;;;10.00;7.15;;;23.60;60.90;;;;;;5033746;28;20036;-67
2021/06/26 10:25:31;;;;;;;10.82;6.65;;;23.60;60.70;;;;;;5033706;28;20518;-67
2021/06/26 10:28:22;;;;;;;9.35;7.22;;;23.60;61.00;;;;;;5051383;28;20040;-66
2021/06/26 10:31:01;;;;;;;10.68;7.78;;;23.60;60.80;;;;;;5028977;28;20429;-67
2021/06/26 10:33:29;;;;;;;10.50;6.72;;;23.50;61.40;;;;;;5051520;28;20041;-67
2021/06/26 10:35:57;;;;;;;11.50;7.57;;;23.50;61.30;;;;;;5033520;28;20021;-67
2021/06/26 10:38:23;;;;;;;11.15;7.70;;;23.30;61.70;;;;;;5033322;28;20393;-67
2021/06/26 10:40:54;;;;;;;9.88;7.32;;;23.40;61.80;;;;;;5051360;28;20108;-67
2021/06/26 10:43:29;;;;;;;11.75;8.00;;;23.40;61.60;;;;;;5051382;28;20025;-67
2021/06/26 10:46:11;;;;;;;11.88;7.47;;;23.50;61.60;;;;;;5051399;28;20055;-66
2021/06/26 10:48:38;;;;;;;10.02;7.50;;;23.60;61.30;;;;;;5033124;28;20021;-66
2021/06/26 10:51:05;;;;;;;10.43;7.57;;;23.60;61.20;;;;;;5033396;28;20386;-67
2021/06/26 10:53:33;;;;;;;10.55;8.20;;;23.60;61.20;;;;;;5051260;28;20074;-67
2021/06/26 10:56:08;;;;;;;9.25;6.82;;;23.60;61.00;;;;;;5034822;28;20033;-67
2021/06/26 10:58:43;;;;;;;10.57;7.50;;;23.60;60.90;;;;;;5033166;28;20025;-67
2021/06/26 11:01:24;;;;;;;10.73;7.63;;;23.70;60.80;;;;;;5051120;28;20029;-66
2021/06/26 11:04:03;;;;;;;11.63;8.02;;;23.60;60.90;;;;;;5051199;28;20032;-67
2021/06/26 11:06:30;;;;;;;11.30;7.85;;;23.50;61.50;;;;;;5051272;28;20025;-67
2021/06/26 11:09:10;;;;;;;11.50;7.93;;;23.40;61.70;;;;;;5036004;28;20021;-68
2021/06/26 11:11:35;;;;;;;13.10;8.38;;;23.30;61.90;;;;;;5037183;28;20021;-69
2021/06/26 11:14:08;;;;;;;11.20;8.23;;;23.20;61.80;;;;;;5055046;28;20363;-67
2021/06/26 11:16:34;;;;;;;10.30;7.57;;;23.20;62.00;;;;;;5054991;28;20021;-68
2021/06/26 11:19:00;;;;;;;11.05;7.63;;;23.20;62.30;;;;;;5036774;28;20025;-67
2021/06/26 11:21:25;;;;;;;10.82;7.72;;;23.30;61.70;;;;;;5054789;28;20100;-67
2021/06/26 11:23:52;;;;;;;11.13;8.25;;;23.30;61.90;;;;;;5036945;28;20064;-67
2021/06/26 11:26:18;;;;;;;9.77;7.53;;;23.30;61.90;;;;;;5054827;28;20025;-68
2021/06/26 11:28:44;;;;;;;9.70;7.40;;;23.30;61.80;;;;;;5054498;28;20117;-67
2021/06/26 11:31:10;;;;;;;10.13;7.22;;;23.40;61.70;;;;;;5054770;28;20100;-67
2021/06/26 11:33:39;;;;;;;10.25;7.78;;;23.40;61.50;;;;;;5036599;28;20035;-68
2021/06/26 11:36:09;;;;;;;10.65;7.63;;;23.40;61.60;;;;;;5036571;28;20051;-68
2021/06/26 11:38:34;;;;;;;9.73;7.22;;;23.30;61.70;;;;;;5054334;28;20082;-67
2021/06/26 11:41:05;;;;;;;9.38;7.50;;;23.40;61.60;;;;;;5054623;28;20045;-68
2021/06/26 11:43:31;;;;;;;10.77;7.18;;;23.40;61.70;;;;;;5054482;28;20432;-67
2021/06/26 11:45:56;;;;;;;9.82;7.28;;;23.40;61.70;;;;;;5036591;28;20033;-68
2021/06/26 11:48:22;;;;;;;9.02;6.70;;;23.40;61.80;;;;;;5036195;28;20025;-67
2021/06/26 11:50:57;;;;;;;11.65;7.88;;;23.30;62.00;;;;;;5054217;28;20021;-67
2021/06/26 11:53:25;;;;;;;9.98;7.60;;;23.30;62.00;;;;;;5036374;28;20036;-66
2021/06/26 11:56:00;;;;;;;10.23;7.03;;;23.30;62.10;;;;;;5054319;28;20032;-67
2021/06/26 11:58:45;;;;;;;11.05;7.20;;;23.20;62.30;;;;;;5053903;28;20440;-66
2021/06/26 12:01:24;;;;;;;9.82;7.38;;;23.20;62.40;;;;;;5035909;28;20402;-68
2021/06/26 12:03:50;;;;;;;9.32;7.00;;;23.20;62.70;;;;;;5054328;28;20021;-67
2021/06/26 12:06:16;;;;;;;11.82;7.68;;;23.20;62.50;;;;;;5054091;28;20432;-67
2021/06/26 12:08:52;;;;;;;10.88;7.15;;;23.20;62.60;;;;;;5053758;28;20025;-67
2021/06/26 12:11:37;;;;;;;9.90;6.93;;;23.20;62.40;;;;;;5036070;28;20029;-67
2021/06/26 12:14:03;;;;;;;10.82;7.07;;;23.30;62.60;;;;;;5036035;28;20053;-66
2021/06/26 12:16:34;;;;;;;9.23;7.03;;;23.20;62.80;;;;;;5035878;28;20064;-68
2021/06/26 12:19:11;;;;;;;9.02;7.03;;;23.20;62.80;;;;;;5052987;28;20539;-67
2021/06/26 12:21:43;;;;;;;9.60;6.97;;;23.20;62.80;;;;;;5053662;28;20033;-67
2021/06/26 12:24:10;;;;;;;10.55;7.25;;;23.10;63.10;;;;;;5053776;28;20052;-67
2021/06/26 12:26:36;;;;;;;10.35;7.53;;;23.10;63.10;;;;;;5035795;28;20025;-67
2021/06/26 12:29:02;;;;;;;10.45;7.07;;;23.10;63.20;;;;;;5053380;28;20017;-67
2021/06/26 12:31:27;;;;;;;9.88;6.85;;;23.10;63.10;;;;;;5053517;28;20025;-68
2021/06/26 12:34:03;;;;;;;10.00;6.78;;;23.10;63.30;;;;;;5053436;28;20063;-67